createdAt,value
2024-02-04T00:02:20.828Z,7.00
2024-02-04T00:04:49.460Z,7.00
2024-02-04T00:07:16.805Z,6.90
2024-02-04T00:09:45.214Z,6.90
2024-02-04T00:12:12.867Z,6.90
2024-02-04T00:14:40.317Z,6.90
2024-02-04T00:17:07.408Z,6.80
2024-02-04T00:19:34.818Z,6.80
2024-02-04T00:22:02.176Z,6.80
2024-02-04T00:24:29.557Z,6.80
2024-02-04T00:26:56.761Z,6.80
2024-02-04T00:29:24.010Z,6.70
2024-02-04T00:31:52.679Z,6.70
2024-02-04T00:34:20.050Z,6.70
2024-02-04T00:36:47.394Z,6.70
2024-02-04T00:39:14.536Z,6.70
2024-02-04T00:41:41.618Z,6.60
2024-02-04T00:44:08.747Z,6.60
2024-02-04T00:46:36.063Z,6.60
2024-02-04T00:49:03.471Z,6.60
2024-02-04T00:51:30.900Z,6.50
2024-02-04T00:53:58.399Z,6.50
2024-02-04T00:56:25.610Z,6.50
2024-02-04T00:58:52.899Z,6.50
2024-02-04T01:01:23.164Z,6.50
2024-02-04T01:03:50.566Z,6.50
2024-02-04T01:06:18.396Z,6.50
2024-02-04T01:08:45.704Z,6.50
2024-02-04T01:11:13.153Z,6.50
2024-02-04T01:13:40.648Z,6.50
2024-02-04T01:16:08.218Z,6.40
2024-02-04T01:18:36.213Z,6.40
2024-02-04T01:21:03.690Z,6.40
2024-02-04T01:23:31.192Z,6.40
2024-02-04T01:25:58.629Z,6.30
2024-02-04T01:28:25.999Z,6.30
2024-02-04T01:30:53.552Z,6.30
2024-02-04T01:33:21.404Z,6.30
2024-02-04T01:35:49.135Z,6.30
2024-02-04T01:38:16.676Z,6.30
2024-02-04T01:40:44.154Z,6.40
2024-02-04T01:43:11.571Z,6.40
2024-02-04T01:45:39.190Z,6.40
2024-02-04T01:48:07.220Z,6.40
2024-02-04T01:50:34.864Z,6.40
2024-02-04T01:53:02.567Z,6.40
2024-02-04T01:55:31.761Z,6.40
2024-02-04T01:57:59.256Z,6.50
2024-02-04T02:00:26.721Z,6.40
2024-02-04T02:02:54.843Z,6.50
2024-02-04T02:05:22.430Z,6.50
2024-02-04T02:07:52.535Z,6.50
2024-02-04T02:10:21.226Z,6.40
2024-02-04T02:13:08.639Z,6.40
2024-02-04T02:15:47.105Z,6.40
2024-02-04T02:18:33.099Z,6.30
2024-02-04T02:21:39.151Z,6.20
2024-02-04T02:24:36.508Z,6.30
2024-02-04T02:27:03.869Z,6.20
2024-02-04T02:29:31.239Z,6.20
2024-02-04T02:31:59.045Z,6.20
2024-02-04T02:34:34.980Z,6.20
2024-02-04T02:37:27.763Z,6.20
2024-02-04T02:40:09.190Z,6.10
2024-02-04T02:42:38.755Z,6.10
2024-02-04T02:45:07.632Z,6.00
2024-02-04T02:47:35.497Z,6.10
2024-02-04T02:50:02.915Z,6.10
2024-02-04T02:52:30.332Z,6.10
2024-02-04T02:54:57.694Z,6.10
2024-02-04T02:57:25.014Z,6.00
2024-02-04T02:59:52.366Z,6.00
2024-02-04T03:02:19.926Z,6.00
2024-02-04T03:04:47.217Z,6.00
2024-02-04T03:07:14.332Z,6.00
2024-02-04T03:09:41.713Z,6.00
2024-02-04T03:12:09.112Z,5.90
2024-02-04T03:14:36.772Z,5.90
2024-02-04T03:17:04.111Z,5.90
2024-02-04T03:19:31.442Z,5.90
2024-02-04T03:22:05.065Z,5.80
2024-02-04T03:24:32.065Z,5.80
2024-02-04T03:26:58.962Z,5.80
2024-02-04T03:29:25.910Z,5.80
2024-02-04T03:31:53.034Z,5.70
2024-02-04T03:34:20.360Z,5.70
2024-02-04T03:36:47.392Z,5.70
2024-02-04T03:39:15.359Z,5.70
2024-02-04T03:41:42.776Z,5.70
2024-02-04T03:44:10.385Z,5.70
2024-02-04T03:46:41.201Z,5.70
2024-02-04T03:49:09.209Z,5.70
2024-02-04T03:51:36.646Z,5.60
2024-02-04T03:54:04.180Z,5.60
2024-02-04T03:56:31.745Z,5.60
2024-02-04T03:58:59.061Z,5.60
2024-02-04T04:01:26.455Z,5.60
2024-02-04T04:03:53.925Z,5.60
2024-02-04T04:06:21.230Z,5.60
2024-02-04T04:08:48.282Z,5.60
2024-02-04T04:11:15.344Z,5.60
2024-02-04T04:13:42.481Z,5.50
2024-02-04T04:16:09.853Z,5.60
2024-02-04T04:18:37.019Z,5.50
2024-02-04T04:21:04.490Z,5.50
2024-02-04T04:23:31.952Z,5.60
2024-02-04T04:25:59.213Z,5.50
2024-02-04T04:28:26.473Z,5.50
2024-02-04T04:30:53.797Z,5.60
2024-02-04T04:33:21.524Z,5.60
2024-02-04T04:35:49.121Z,5.60
2024-02-04T04:38:16.352Z,5.60
2024-02-04T04:40:43.787Z,5.60
2024-02-04T04:43:10.938Z,5.60
2024-02-04T04:45:38.304Z,5.60
2024-02-04T04:48:06.295Z,5.50
2024-02-04T04:50:33.797Z,5.50
2024-02-04T04:53:01.091Z,5.50
2024-02-04T04:55:28.257Z,5.50
2024-02-04T04:57:55.778Z,5.50
2024-02-04T05:00:23.371Z,5.50
2024-02-04T05:02:50.730Z,5.50
2024-02-04T05:05:18.109Z,5.50
2024-02-04T05:07:47.931Z,5.50
2024-02-04T05:10:15.222Z,5.50
2024-02-04T05:12:42.620Z,5.50
2024-02-04T05:15:10.309Z,5.50
2024-02-04T05:17:37.808Z,5.50
2024-02-04T05:20:05.739Z,5.40
2024-02-04T05:22:33.105Z,5.40
2024-02-04T05:25:00.503Z,5.40
2024-02-04T05:27:27.970Z,5.40
2024-02-04T05:29:55.305Z,5.40
2024-02-04T05:32:23.076Z,5.40
2024-02-04T05:34:50.323Z,5.40
2024-02-04T05:37:17.639Z,5.40
2024-02-04T05:39:44.916Z,5.40
2024-02-04T05:42:12.295Z,5.40
2024-02-04T05:44:39.609Z,5.40
2024-02-04T05:47:06.984Z,5.40
2024-02-04T05:49:34.336Z,5.40
2024-02-04T05:52:01.664Z,5.50
2024-02-04T05:54:28.932Z,5.40
2024-02-04T05:56:56.246Z,5.40
2024-02-04T05:59:23.547Z,5.40
2024-02-04T06:01:50.677Z,5.40
2024-02-04T06:04:18.030Z,5.40
2024-02-04T06:06:45.571Z,5.40
2024-02-04T06:09:12.770Z,5.40
2024-02-04T06:11:40.160Z,5.40
2024-02-04T06:14:07.568Z,5.50
2024-02-04T06:16:35.715Z,5.50
2024-02-04T06:19:03.345Z,5.40
2024-02-04T06:21:30.745Z,5.40
2024-02-04T06:23:58.159Z,5.40
2024-02-04T06:26:25.672Z,5.40
2024-02-04T06:28:53.355Z,5.40
2024-02-04T06:31:20.862Z,5.40
2024-02-04T06:33:48.279Z,5.40
2024-02-04T06:36:15.688Z,5.40
2024-02-04T06:38:43.042Z,5.50
2024-02-04T06:41:13.628Z,5.50
2024-02-04T06:43:41.103Z,5.50
2024-02-04T06:46:08.495Z,5.50
2024-02-04T06:48:35.998Z,5.50
2024-02-04T06:51:03.498Z,5.50
2024-02-04T06:53:31.004Z,5.60
2024-02-04T06:55:58.293Z,5.60
2024-02-04T06:58:25.581Z,5.60
2024-02-04T07:00:53.188Z,5.60
2024-02-04T07:03:20.807Z,5.70
2024-02-04T07:05:48.636Z,5.70
2024-02-04T07:08:16.283Z,5.70
2024-02-04T07:10:43.723Z,5.70
2024-02-04T07:13:12.956Z,5.80
2024-02-04T07:15:40.646Z,5.80
2024-02-04T07:18:08.910Z,5.80
2024-02-04T07:20:36.167Z,5.80
2024-02-04T07:23:03.638Z,5.90
2024-02-04T07:25:30.956Z,5.90
2024-02-04T07:27:59.673Z,6.00
2024-02-04T07:30:27.093Z,5.90
2024-02-04T07:32:54.693Z,5.90
2024-02-04T07:35:22.104Z,6.00
2024-02-04T07:37:49.750Z,5.90
2024-02-04T07:40:17.183Z,6.00
2024-02-04T07:42:44.600Z,6.00
2024-02-04T07:45:11.828Z,6.00
2024-02-04T07:47:38.870Z,6.10
2024-02-04T07:50:06.849Z,6.10
2024-02-04T07:52:34.086Z,6.10
2024-02-04T07:55:01.353Z,6.10
2024-02-04T07:57:28.562Z,6.10
2024-02-04T07:59:56.655Z,6.20
2024-02-04T08:02:23.728Z,6.20
2024-02-04T08:04:50.838Z,6.20
2024-02-04T08:07:18.696Z,6.30
2024-02-04T08:09:46.775Z,6.30
2024-02-04T08:12:13.983Z,6.30
2024-02-04T08:14:40.976Z,6.30
2024-02-04T08:17:08.371Z,6.30
2024-02-04T08:19:36.282Z,6.30
2024-02-04T08:22:03.556Z,6.40
2024-02-04T08:24:33.124Z,6.40
2024-02-04T08:27:00.885Z,6.40
2024-02-04T08:29:28.093Z,6.40
2024-02-04T08:31:55.152Z,6.40
2024-02-04T08:34:25.231Z,6.50
2024-02-04T08:36:52.675Z,6.50
2024-02-04T08:39:19.735Z,6.50
2024-02-04T08:41:46.873Z,6.50
2024-02-04T08:44:22.833Z,6.50
2024-02-04T08:46:59.319Z,6.50
2024-02-04T08:49:26.626Z,6.50
2024-02-04T08:51:54.004Z,6.60
2024-02-04T08:54:21.323Z,6.60
2024-02-04T08:56:48.418Z,6.60
2024-02-04T08:59:15.620Z,6.60
2024-02-04T09:01:42.742Z,6.60
2024-02-04T09:04:09.921Z,6.70
2024-02-04T09:06:37.045Z,6.70
2024-02-04T09:09:04.225Z,6.70
2024-02-04T09:11:31.223Z,6.70
2024-02-04T09:13:58.185Z,6.80
2024-02-04T09:16:25.358Z,6.80
2024-02-04T09:18:52.515Z,6.80
2024-02-04T09:21:19.944Z,6.80
2024-02-04T09:23:47.442Z,6.80
2024-02-04T09:26:18.982Z,6.90
2024-02-04T09:28:47.017Z,6.90
2024-02-04T09:31:14.241Z,6.90
2024-02-04T09:33:42.219Z,7.00
2024-02-04T09:36:09.808Z,7.00
2024-02-04T09:38:37.208Z,7.00
2024-02-04T09:41:05.505Z,7.00
2024-02-04T09:43:34.380Z,7.00
2024-02-04T09:46:02.428Z,7.10
2024-02-04T09:48:34.332Z,7.10
2024-02-04T09:51:01.844Z,7.10
2024-02-04T09:53:37.536Z,7.20
2024-02-04T09:56:07.759Z,7.20
2024-02-04T09:58:35.494Z,7.20
2024-02-04T10:01:04.017Z,7.20
2024-02-04T10:03:31.672Z,7.30
2024-02-04T10:05:58.885Z,7.30
2024-02-04T10:08:26.781Z,7.40
2024-02-04T10:10:55.782Z,7.40
2024-02-04T10:13:26.849Z,7.50
2024-02-04T10:15:54.346Z,7.50
2024-02-04T10:18:22.865Z,7.60
2024-02-04T10:20:50.013Z,7.60
2024-02-04T10:23:17.140Z,7.60
2024-02-04T10:25:44.242Z,7.70
2024-02-04T10:28:12.081Z,7.70
2024-02-04T10:30:40.944Z,7.80
2024-02-04T10:33:08.491Z,7.70
2024-02-04T10:35:35.542Z,7.80
2024-02-04T10:38:02.931Z,7.80
2024-02-04T10:40:33.854Z,7.90
2024-02-04T10:43:05.962Z,7.90
2024-02-04T10:45:35.299Z,7.90
2024-02-04T10:48:03.574Z,8.00
2024-02-04T10:50:34.037Z,8.10
2024-02-04T10:53:08.354Z,8.10
2024-02-04T10:55:43.029Z,8.20
2024-02-04T10:58:13.244Z,8.30
2024-02-04T11:00:42.304Z,8.30
2024-02-04T11:03:10.064Z,8.50
2024-02-04T11:05:39.846Z,8.60
2024-02-04T11:08:07.527Z,8.50
2024-02-04T11:10:36.086Z,8.50
2024-02-04T11:13:05.318Z,8.50
2024-02-04T11:15:38.480Z,8.60
2024-02-04T11:18:37.085Z,8.50
2024-02-04T11:21:22.703Z,8.50
2024-02-04T11:24:18.757Z,8.60
2024-02-04T11:26:46.217Z,8.60
2024-02-04T11:29:13.920Z,8.60
2024-02-04T11:31:41.954Z,8.60
2024-02-04T11:34:09.744Z,8.60
2024-02-04T11:36:41.349Z,8.60
2024-02-04T11:39:16.351Z,8.60
2024-02-04T11:41:51.164Z,8.60
2024-02-04T11:44:25.488Z,8.70
2024-02-04T11:46:53.495Z,8.70
2024-02-04T11:49:23.337Z,8.70
2024-02-04T11:51:53.973Z,8.80
2024-02-04T11:54:24.128Z,8.80
2024-02-04T11:56:54.729Z,8.90
2024-02-04T11:59:23.807Z,9.00
2024-02-04T12:01:58.938Z,9.00
2024-02-04T12:04:29.710Z,9.00
2024-02-04T12:06:57.458Z,9.00
2024-02-04T12:09:25.119Z,9.00
2024-02-04T12:11:55.111Z,9.00
2024-02-04T12:14:23.158Z,8.90
2024-02-04T12:16:50.441Z,8.90
2024-02-04T12:19:17.842Z,8.90
2024-02-04T12:21:45.561Z,8.90
2024-02-04T12:24:13.014Z,8.90
2024-02-04T12:26:41.454Z,8.90
2024-02-04T12:29:08.955Z,8.80
2024-02-04T12:31:36.118Z,8.80
2024-02-04T12:34:04.077Z,8.70
2024-02-04T12:36:32.869Z,8.70
2024-02-04T12:39:02.029Z,8.80
2024-02-04T12:41:30.694Z,8.70
2024-02-04T12:44:06.178Z,8.70
2024-02-04T12:46:33.593Z,8.70
2024-02-04T12:49:04.072Z,8.70
2024-02-04T12:51:40.394Z,8.60
2024-02-04T12:54:08.861Z,8.60
2024-02-04T12:56:49.134Z,8.60
2024-02-04T12:59:33.231Z,8.60
2024-02-04T13:02:01.926Z,8.50
2024-02-04T13:04:35.664Z,8.50
2024-02-04T13:07:02.975Z,8.50
2024-02-04T13:09:30.472Z,8.50
2024-02-04T13:12:08.907Z,8.50
2024-02-04T13:14:39.591Z,8.40
2024-02-04T13:17:07.360Z,8.40
2024-02-04T13:19:35.668Z,8.40
2024-02-04T13:22:04.557Z,8.40
2024-02-04T13:24:32.444Z,8.50
2024-02-04T13:27:01.760Z,8.40
2024-02-04T13:29:31.815Z,8.40
2024-02-04T13:31:59.416Z,8.40
2024-02-04T13:34:26.604Z,8.40
2024-02-04T13:48:01.328Z,8.40
2024-02-04T13:50:28.443Z,8.50
2024-02-04T13:52:55.975Z,8.50
2024-02-04T13:55:23.081Z,8.50
2024-02-04T13:57:50.682Z,8.50
2024-02-04T14:00:18.670Z,8.50
2024-02-04T14:02:45.848Z,8.40
2024-02-04T14:05:13.147Z,8.40
2024-02-04T14:07:40.321Z,8.40
2024-02-04T14:10:09.311Z,8.30
2024-02-04T14:12:37.467Z,8.30
2024-02-04T14:15:05.157Z,8.30
2024-02-04T14:17:32.175Z,8.30
2024-02-04T14:20:00.049Z,8.30
2024-02-04T14:22:29.035Z,8.30
2024-02-04T14:24:56.451Z,8.30
2024-02-04T14:39:58.745Z,8.20
2024-02-04T14:42:25.774Z,8.30
2024-02-04T14:44:53.234Z,8.40
2024-02-04T14:47:20.390Z,8.30
2024-02-04T14:49:47.600Z,8.30
2024-02-04T14:52:15.685Z,8.30
2024-02-04T14:54:42.828Z,8.20
2024-02-04T14:57:10.117Z,8.20
2024-02-04T14:59:38.775Z,8.20
2024-02-04T15:02:06.319Z,8.10
2024-02-04T15:04:33.609Z,8.10
2024-02-04T15:07:04.481Z,8.10
2024-02-04T15:09:35.570Z,8.10
2024-02-04T15:12:03.410Z,8.10
2024-02-04T15:14:30.701Z,8.10
2024-02-04T15:16:59.254Z,8.10
2024-02-04T15:19:29.708Z,8.10
2024-02-04T15:21:57.103Z,8.00
2024-02-04T15:24:24.298Z,8.00
2024-02-04T15:26:53.388Z,8.00
2024-02-04T15:29:21.422Z,7.90
2024-02-04T15:31:50.491Z,7.90
2024-02-04T15:34:18.243Z,7.90
2024-02-04T15:36:46.062Z,7.80
2024-02-04T15:39:13.032Z,7.80
2024-02-04T15:41:40.448Z,7.80
2024-02-04T15:44:10.202Z,7.80
2024-02-04T15:46:38.205Z,7.70
2024-02-04T15:49:11.250Z,7.70
2024-02-04T15:51:38.807Z,7.70
2024-02-04T15:54:09.086Z,7.60
2024-02-04T15:56:42.405Z,7.60
2024-02-04T15:59:12.797Z,7.60
2024-02-04T16:01:41.878Z,7.60
2024-02-04T16:04:09.945Z,7.60
2024-02-04T16:06:37.464Z,7.60
2024-02-04T16:09:09.158Z,7.50
2024-02-04T16:12:05.415Z,7.50
2024-02-04T16:14:45.119Z,7.50
2024-02-04T16:17:20.940Z,7.50
2024-02-04T16:19:54.994Z,7.50
2024-02-04T16:22:22.370Z,7.50
2024-02-04T16:24:49.399Z,7.50
2024-02-04T16:27:16.557Z,7.50
2024-02-04T16:29:43.853Z,7.40
2024-02-04T16:32:14.438Z,7.50
2024-02-04T16:34:41.916Z,7.50
2024-02-04T16:37:10.601Z,7.40
2024-02-04T16:39:38.553Z,7.40
2024-02-04T16:42:05.909Z,7.40
2024-02-04T16:44:32.837Z,7.40
2024-02-04T16:47:00.181Z,7.30
2024-02-04T16:49:28.709Z,7.30
2024-02-04T16:51:55.946Z,7.30
2024-02-04T16:54:29.109Z,7.30
2024-02-04T16:56:58.584Z,7.30
2024-02-04T16:59:26.146Z,7.30
2024-02-04T17:01:53.787Z,7.30
2024-02-04T17:04:21.731Z,7.30
2024-02-04T17:06:50.250Z,7.30
2024-02-04T17:09:22.765Z,7.30
2024-02-04T17:12:22.799Z,7.30
2024-02-04T17:15:41.074Z,7.30
2024-02-04T17:18:10.219Z,7.30
2024-02-04T17:20:49.096Z,7.40
2024-02-04T17:23:20.983Z,7.30
2024-02-04T17:25:49.716Z,7.40
2024-02-04T17:28:17.040Z,7.20
2024-02-04T17:30:45.663Z,7.30
2024-02-04T17:33:13.040Z,7.30
2024-02-04T17:35:40.073Z,7.30
2024-02-04T17:38:07.835Z,7.30
2024-02-04T17:40:35.822Z,7.30
2024-02-04T17:43:02.800Z,7.30
2024-02-04T17:45:29.835Z,7.30
2024-02-04T17:47:56.838Z,7.30
2024-02-04T17:50:29.875Z,7.40
2024-02-04T17:52:56.871Z,7.30
2024-02-04T17:55:24.696Z,7.40
2024-02-04T17:57:51.996Z,7.40
2024-02-04T18:00:19.394Z,7.40
2024-02-04T18:02:47.997Z,7.40
2024-02-04T18:05:18.339Z,7.40
2024-02-04T18:07:46.158Z,7.40
2024-02-04T18:10:13.568Z,7.40
2024-02-04T18:12:41.226Z,7.40
2024-02-04T18:15:09.748Z,7.40
2024-02-04T18:17:43.630Z,7.40
2024-02-04T18:20:12.937Z,7.40
2024-02-04T18:22:40.350Z,7.50
2024-02-04T18:25:12.666Z,7.40
2024-02-04T18:27:42.235Z,7.40
2024-02-04T18:30:13.921Z,7.50
2024-02-04T18:32:43.505Z,7.50
2024-02-04T18:35:24.240Z,7.50
2024-02-04T18:38:06.010Z,7.50
2024-02-04T18:40:39.357Z,7.50
2024-02-04T18:43:08.954Z,7.50
2024-02-04T18:45:43.859Z,7.50
2024-02-04T18:48:15.674Z,7.50
2024-02-04T18:50:48.950Z,7.60
2024-02-04T18:53:19.477Z,7.60
2024-02-04T18:56:09.673Z,7.60
2024-02-04T18:59:49.482Z,7.70
2024-02-04T19:03:27.579Z,7.70
2024-02-04T19:06:25.634Z,7.70
2024-02-04T19:09:07.142Z,7.70
2024-02-04T19:12:10.235Z,7.70
2024-02-04T19:14:55.174Z,7.70
2024-02-04T19:17:42.022Z,7.70
2024-02-04T19:20:42.740Z,7.70
2024-02-04T19:23:33.567Z,7.70
2024-02-04T19:26:15.950Z,7.80
2024-02-04T19:28:43.312Z,7.80
2024-02-04T19:31:11.302Z,7.80
2024-02-04T19:33:41.337Z,7.80
2024-02-04T19:36:11.473Z,7.80
2024-02-04T19:38:40.904Z,7.90
2024-02-04T19:41:08.968Z,7.90
2024-02-04T19:43:38.375Z,7.90
2024-02-04T19:46:10.461Z,8.00
2024-02-04T19:48:47.146Z,8.00
2024-02-04T19:51:15.577Z,8.10
2024-02-04T19:53:45.909Z,8.10
2024-02-04T19:59:18.420Z,8.20
2024-02-04T20:01:48.406Z,8.30
2024-02-04T20:04:15.535Z,8.40
2024-02-04T20:07:05.554Z,8.60
2024-02-04T20:09:38.991Z,8.50
2024-02-04T20:12:09.048Z,8.70
2024-02-04T20:14:36.092Z,8.70
2024-02-04T20:17:03.061Z,8.80
2024-02-04T20:19:30.189Z,8.80
2024-02-04T20:21:57.331Z,8.90
2024-02-04T20:24:24.524Z,8.90
2024-02-04T20:27:00.982Z,9.00
2024-02-04T20:29:33.049Z,9.00
2024-02-04T20:32:02.979Z,9.10
2024-02-04T20:34:33.038Z,9.10
2024-02-04T20:37:00.392Z,9.10
2024-02-04T20:39:36.348Z,9.20
2024-02-04T20:42:03.923Z,9.20
2024-02-04T20:44:35.780Z,9.20
2024-02-04T20:47:08.088Z,9.20
2024-02-04T20:49:40.322Z,9.20
2024-02-04T20:52:07.446Z,9.30
2024-02-04T20:54:38.551Z,9.30
2024-02-04T20:57:05.844Z,9.30
2024-02-04T20:59:36.855Z,9.30
2024-02-04T21:02:15.952Z,9.30
2024-02-04T21:05:26.220Z,9.40
2024-02-04T21:07:59.328Z,9.40
2024-02-04T21:10:27.482Z,9.40
2024-02-04T21:12:57.832Z,9.40
2024-02-04T21:15:32.108Z,9.40
2024-02-04T21:18:07.662Z,9.40
2024-02-04T21:20:38.209Z,9.40
2024-02-04T21:23:08.804Z,9.40
2024-02-04T21:25:44.315Z,9.50
2024-02-04T21:28:17.695Z,9.50
2024-02-04T21:30:55.601Z,9.50
2024-02-04T21:33:32.094Z,9.50
2024-02-04T21:35:59.527Z,9.50
2024-02-04T21:38:48.577Z,9.50
2024-02-04T21:41:20.624Z,9.50
2024-02-04T21:43:53.182Z,9.50
2024-02-04T21:46:25.885Z,9.50
2024-02-04T21:48:56.687Z,9.50
2024-02-04T21:51:24.272Z,9.50
2024-02-04T21:53:55.000Z,9.50
2024-02-04T21:56:25.449Z,9.50
2024-02-04T21:58:52.746Z,9.50
2024-02-04T22:01:26.478Z,9.50
2024-02-04T22:03:59.585Z,9.50
2024-02-04T22:06:42.541Z,9.50
2024-02-04T22:09:18.437Z,9.50
2024-02-04T22:11:48.383Z,9.50
2024-02-04T22:14:19.843Z,9.50
2024-02-04T22:17:01.501Z,9.50
2024-02-04T22:19:43.273Z,9.50
2024-02-04T22:22:16.384Z,9.50
2024-02-04T22:24:49.527Z,9.50
2024-02-04T22:27:22.544Z,9.50
2024-02-04T22:29:50.158Z,9.50
2024-02-04T22:32:20.003Z,9.50
2024-02-04T22:34:47.897Z,9.50
2024-02-04T22:37:29.221Z,9.50
2024-02-04T22:40:05.945Z,9.50
2024-02-04T22:42:53.583Z,9.50
2024-02-04T22:52:06.063Z,9.50
2024-02-04T22:57:42.814Z,9.50
2024-02-04T23:03:23.520Z,9.60
2024-02-04T23:06:03.976Z,9.50
2024-02-04T23:08:37.591Z,9.60
2024-02-04T23:11:22.141Z,9.60
2024-02-04T23:13:58.463Z,9.60
2024-02-04T23:16:28.389Z,9.60
2024-02-04T23:19:00.229Z,9.60
2024-02-04T23:21:27.867Z,9.60
2024-02-04T23:23:56.650Z,9.60
2024-02-04T23:26:24.419Z,9.60
2024-02-04T23:29:00.170Z,9.60
2024-02-04T23:31:39.752Z,9.60
2024-02-04T23:34:12.213Z,9.70
2024-02-04T23:36:46.471Z,9.70
2024-02-04T23:39:25.826Z,9.70
2024-02-04T23:42:10.464Z,9.60
2024-02-04T23:48:05.716Z,9.70
2024-02-04T23:54:18.495Z,9.70
2024-02-04T23:58:11.321Z,9.70
